Vanscoy, Canada
Current Conditions -  °F | °C
As of 2:00 PM on Sunday 21 Dec 2014 (Local Time) from CYXE Reporting Station
Overcast Overcast  
Wind Chill: 11°   Ceiling: 500
Heat Index: 23°   Visibility: 8mi
Dew Point: 23°   Wind: 13mph
Humidity: 100%   Direction: 90°E
Pressure: 29.38"   Gusts: NA
Location:  52°N, 106.98°W
Report Text: CYXE 212000Z 09011KT 8SM OVC005 M05/M05 A2938 RMK ST8 BR SLP980
Loading
Personal Weather Stations






























Interactive Weather Map New forecast layout! Learn more

10-Day Weather Forecast

Advertisements
Track Severe Weather on mobile